Juan_de_la_cosa — ECJE — position and weather

sailwx.info

Track history (hours):
 
Tides and Currents Weather Stations Pressure Air Temp Water Temp Dewpoint Dewpoint Depression Visibility Wind Speed Wind Dir Waves Ship Positions

Juan_de_la_cosa

Last reported at 2018-Jan-18 23:50 UTC. Time now 2018-Jan-22 00:18 UTC.
Position N 36°23' W 029°31'.

Length 75 m; draft 4.5 m.

Type: SAR. MMSI: 224612000.

Date/timePositionNaut miles runAvg speedWind from/ knotsBaromVisibWave heightAir tempDewpointWater temp
2018-Jan-18 23:50N 36°23' W 029°31'612.3
2018-Jan-18 23:19N 36°29' W 029°28'1012.6
2018-Jan-18 22:31N 36°38' W 029°23'312.8
2018-Jan-18 22:16N 36°41' W 029°21'512.7
2018-Jan-18 21:52N 36°46' W 029°18'712.6
2018-Jan-18 21:21N 36°52' W 029°14'512.7
2018-Jan-18 20:58N 36°56' W 029°12'612.7
2018-Jan-18 20:30N 37°01' W 029°09'612.5
2018-Jan-18 20:00N 37°07' W 029°05'612.4
2018-Jan-18 19:31N 37°12' W 029°02'612.7
2018-Jan-18 19:00N 37°18' W 028°58'612.8
2018-Jan-18 18:30N 37°24' W 028°54'713.1
2018-Jan-18 18:00N 37°29' W 028°50'613.0
2018-Jan-18 17:31N 37°35' W 028°47'713.4
2018-Jan-18 17:01N 37°42' W 028°44'713.2
2018-Jan-18 16:30N 37°48' W 028°40'613.0
2018-Jan-18 16:01N 37°53' W 028°37'713.0
2018-Jan-18 15:30N 37°59' W 028°33'612.5
2018-Jan-18 15:00N 38°05' W 028°30'612.6
2018-Jan-18 14:31N 38°11' W 028°26'612.8
2018-Jan-18 14:01N 38°16' W 028°23'5 9.2
2018-Jan-18 13:30N 38°20' W 028°19'1 2.5
2018-Jan-18 13:01N 38°20' W 028°21'3 6.9
2018-Jan-18 12:31N 38°21' W 028°25'3 6.8
2018-Jan-18 12:00N 38°22' W 028°29'3 6.9
2018-Jan-18 11:31N 38°24' W 028°33'3 6.7
2018-Jan-18 11:00N 38°26' W 028°36'3 7.0
2018-Jan-18 10:30N 38°29' W 028°36'2 4.9
2018-Jan-18 10:00N 38°32' W 028°36'0 0.9
2018-Jan-18 09:30N 38°31' W 028°37'4 8.0
2018-Jan-18 09:00N 38°27' W 028°38'4 7.3
2018-Jan-18 08:30N 38°28' W 028°43'2 4.3
2018-Jan-18 08:00N 38°28' W 028°45'4 7.5
2018-Jan-18 07:31N 38°27' W 028°41'3 5.5
2018-Jan-18 07:01N 38°26' W 028°38'4 7.4
2018-Jan-18 06:31N 38°22' W 028°38'4 7.3
2018-Jan-18 06:01N 38°19' W 028°39'4 7.4
2018-Jan-18 05:31N 38°15' W 028°39'4 7.3
2018-Jan-18 05:01N 38°11' W 028°39'4 7.5
2018-Jan-18 04:31N 38°08' W 028°40'4 7.6
2018-Jan-18 04:00N 38°04' W 028°40'4 7.7
2018-Jan-18 03:31N 37°60' W 028°41'4 7.7
2018-Jan-18 03:01N 37°56' W 028°41'4 7.8
2018-Jan-18 02:31N 37°52' W 028°41'4 7.8
2018-Jan-18 02:00N 37°48' W 028°42'4 7.8
2018-Jan-18 01:31N 37°45' W 028°42'4 7.6
2018-Jan-18 01:01N 37°41' W 028°43'7 7.3
2018-Jan-18 00:01N 37°33' W 028°44'0 7.3
2018-Jan-17 23:58N 37°33' W 028°44'  
Track history (hours):
 
Tides and Currents Weather Stations Pressure Air Temp Water Temp Dewpoint Dewpoint Depression Visibility Wind Speed Wind Dir Waves Ship Positions

Juan_de_la_cosa

Last reported at 2018-Jan-18 23:50 UTC. Time now 2018-Jan-22 00:18 UTC.
Position N 36°23' W 029°31'.

Length 75 m; draft 4.5 m.

Type: SAR. MMSI: 224612000.

Date/timePositionNaut miles runAvg speedWind from/ knotsBaromVisibWave heightAir tempDewpointWater temp
2018-Jan-18 23:50N 36°23' W 029°31'612.3
2018-Jan-18 23:19N 36°29' W 029°28'1012.6
2018-Jan-18 22:31N 36°38' W 029°23'312.8
2018-Jan-18 22:16N 36°41' W 029°21'512.7
2018-Jan-18 21:52N 36°46' W 029°18'712.6
2018-Jan-18 21:21N 36°52' W 029°14'512.7
2018-Jan-18 20:58N 36°56' W 029°12'612.7
2018-Jan-18 20:30N 37°01' W 029°09'612.5
2018-Jan-18 20:00N 37°07' W 029°05'612.4
2018-Jan-18 19:31N 37°12' W 029°02'612.7
2018-Jan-18 19:00N 37°18' W 028°58'612.8
2018-Jan-18 18:30N 37°24' W 028°54'713.1
2018-Jan-18 18:00N 37°29' W 028°50'613.0
2018-Jan-18 17:31N 37°35' W 028°47'713.4
2018-Jan-18 17:01N 37°42' W 028°44'713.2
2018-Jan-18 16:30N 37°48' W 028°40'613.0
2018-Jan-18 16:01N 37°53' W 028°37'713.0
2018-Jan-18 15:30N 37°59' W 028°33'612.5
2018-Jan-18 15:00N 38°05' W 028°30'612.6
2018-Jan-18 14:31N 38°11' W 028°26'612.8
2018-Jan-18 14:01N 38°16' W 028°23'5 9.2
2018-Jan-18 13:30N 38°20' W 028°19'1 2.5
2018-Jan-18 13:01N 38°20' W 028°21'3 6.9
2018-Jan-18 12:31N 38°21' W 028°25'3 6.8
2018-Jan-18 12:00N 38°22' W 028°29'3 6.9
2018-Jan-18 11:31N 38°24' W 028°33'3 6.7
2018-Jan-18 11:00N 38°26' W 028°36'3 7.0
2018-Jan-18 10:30N 38°29' W 028°36'2 4.9
2018-Jan-18 10:00N 38°32' W 028°36'0 0.9
2018-Jan-18 09:30N 38°31' W 028°37'4 8.0
2018-Jan-18 09:00N 38°27' W 028°38'4 7.3
2018-Jan-18 08:30N 38°28' W 028°43'2 4.3
2018-Jan-18 08:00N 38°28' W 028°45'4 7.5
2018-Jan-18 07:31N 38°27' W 028°41'3 5.5
2018-Jan-18 07:01N 38°26' W 028°38'4 7.4
2018-Jan-18 06:31N 38°22' W 028°38'4 7.3
2018-Jan-18 06:01N 38°19' W 028°39'4 7.4
2018-Jan-18 05:31N 38°15' W 028°39'4 7.3
2018-Jan-18 05:01N 38°11' W 028°39'4 7.5
2018-Jan-18 04:31N 38°08' W 028°40'4 7.6
2018-Jan-18 04:00N 38°04' W 028°40'4 7.7
2018-Jan-18 03:31N 37°60' W 028°41'4 7.7
2018-Jan-18 03:01N 37°56' W 028°41'4 7.8
2018-Jan-18 02:31N 37°52' W 028°41'4 7.8
2018-Jan-18 02:00N 37°48' W 028°42'4 7.8
2018-Jan-18 01:31N 37°45' W 028°42'4 7.6
2018-Jan-18 01:01N 37°41' W 028°43'7 7.3
2018-Jan-18 00:01N 37°33' W 028°44'0 7.3
2018-Jan-17 23:58N 37°33' W 028°44'  

Dump ship's entire track history